aviador You're here:

CYTE Decoded Metar

CAPE DORSET in NU, CANADA
Report Time2017-06-22 21:00:00
UTC Time2017-06-22 22:21:16
Flight Rules Old
Wind240° at 11 Gusting to 16 kt
W.Decomp.*RWY 31: 8.0 kt HW 7.5 kt LCW
W.Rank240° ranks 10
Current wind is above 240° avg. (10.1)
Visibility9999 m
Phenomena:N/A
Clouds:Scattered 043 Hf
Overcast 075 Hf
Expected CloudBase > 1,200 ft AGL from Temp-Dew spread
Ceiling7,500 ft
Temp06°C (ISA -9)
Dew Point03°C (81% RH)
AAT0.5°C
QNH1006 hPa
Density Alt-551 ft
Elevation154 ft
Report Wrong Elevation
Raw Report
CYTE 222100Z AUTO 24011G16KT 9SM SCT043 OVC075 06/03 A2971 RMK
SLP067=

Extra information for CYTE:More info

Metar Taf Metar & Taf Last 4 Metars F.Rules Stats Wind Profile Meteogram Temp Stats Airport Information Weather charts Add Link Nearby VenuesMetar ALERT Operation Metar Decoded Social comments